nws-alerts: Checking more than four warning/county codes can delay the loading of your pages. You should use a cron job to get the data.
EllijayWeather Station Historical Data
Daily Summary for December 5, 2018 Units:  Both    English   Metric
Daily Weekly Monthly Yearly Custom
  High: Low: Average:
Temperature: 38.7 °F /  3.7 °C 25.3 °F /  -3.7 °C 32 °F /  0 °C
Dew Point: 28.2 °F /  -2.1 °C 19.4 °F /  -7 °C 23.7 °F /  -4.6 °C
Humidity: 85% 58% 71%
Wind Speed: 6mph /  9.7km/h - 0.4mph /  0.6km/h
Wind Gust: 10mph /  16.1km/h - -
Wind- - WSW
Pressure: 30.45 in /  1031 hPa 30.20 in /  1022.6 hPa -
Precipitation: 0 in /  0 mm    
Historical Graphs
 
 
Tabular Data for December 5, 2018
Time Temperature Dew Point Pressure Wind Wind Speed Wind Gust Humidity Rainfall Rate (Hourly) solar
00:04 35.1 °F /  1.7 °C 28.2 °F /  -2.1 °C 30.22in /  1023.2hPa Calm     76% 0in /  0mm meteobridge W/m2
00:09 35.1 °F /  1.7 °C 28.2 °F /  -2.1 °C 30.21in /  1022.9hPa Calm     76% 0in /  0mm meteobridge W/m2
00:14 35.1 °F /  1.7 °C 28.2 °F /  -2.1 °C 30.21in /  1022.9hPa Calm     76% 0in /  0mm meteobridge W/m2
00:19 35.2 °F /  1.8 °C 28 °F /  -2.2 °C 30.21in /  1022.9hPa Calm     75% 0in /  0mm meteobridge W/m2
00:24 35.2 °F /  1.8 °C 27.9 °F /  -2.3 °C 30.21in /  1022.9hPa Calm   1mph /  1.6km/h 74% 0in /  0mm meteobridge W/m2
00:29 35.2 °F /  1.8 °C 27.9 °F /  -2.3 °C 30.22in /  1023.2hPa Calm   2mph /  3.2km/h 74% 0in /  0mm meteobridge W/m2
00:34 35.4 °F /  1.9 °C 28 °F /  -2.2 °C 30.22in /  1023.2hPa Calm     74% 0in /  0mm meteobridge W/m2
00:39 35.4 °F /  1.9 °C 27.7 °F /  -2.4 °C 30.21in /  1022.9hPa Calm     73% 0in /  0mm meteobridge W/m2
00:44 35.4 °F /  1.9 °C 27.7 °F /  -2.4 °C 30.21in /  1022.9hPa Calm   1mph /  1.6km/h 73% 0in /  0mm meteobridge W/m2
00:49 35.4 °F /  1.9 °C 27.3 °F /  -2.6 °C 30.21in /  1022.9hPa Calm   1mph /  1.6km/h 72% 0in /  0mm meteobridge W/m2
00:54 35.4 °F /  1.9 °C 27.3 °F /  -2.6 °C 30.21in /  1022.9hPa Calm   5mph /  8km/h 72% 0in /  0mm meteobridge W/m2
00:59 35.2 °F /  1.8 °C 26.8 °F /  -2.9 °C 30.21in /  1022.9hPa Calm     71% 0in /  0mm meteobridge W/m2
01:04 35.2 °F /  1.8 °C 27.1 °F /  -2.7 °C 30.21in /  1022.9hPa Calm   1mph /  1.6km/h 72% 0in /  0mm meteobridge W/m2
01:09 35.1 °F /  1.7 °C 26.6 °F /  -3 °C 30.21in /  1022.9hPa Calm   1mph /  1.6km/h 71% 0in /  0mm meteobridge W/m2
01:14 34.7 °F /  1.5 °C 26.2 °F /  -3.2 °C 30.21in /  1022.9hPa Calm     71% 0in /  0mm meteobridge W/m2
01:19 34.5 °F /  1.4 °C 26.1 °F /  -3.3 °C 30.21in /  1022.9hPa Calm     71% 0in /  0mm meteobridge W/m2
01:24 34.3 °F /  1.3 °C 25.9 °F /  -3.4 °C 30.21in /  1022.9hPa Calm     71% 0in /  0mm meteobridge W/m2
01:29 34 °F /  1.1 °C 25.5 °F /  -3.6 °C 30.21in /  1022.9hPa Calm   2mph /  3.2km/h 71% 0in /  0mm meteobridge W/m2
01:34 33.8 °F /  1 °C 25.3 °F /  -3.7 °C 30.21in /  1022.9hPa Calm     71% 0in /  0mm meteobridge W/m2
01:39 33.6 °F /  0.9 °C 25.2 °F /  -3.8 °C 30.21in /  1022.9hPa Calm     71% 0in /  0mm meteobridge W/m2
01:44 33.4 °F /  0.8 °C 25.3 °F /  -3.7 °C 30.21in /  1022.9hPa Calm     72% 0in /  0mm meteobridge W/m2
01:49 33.3 °F /  0.7 °C 25.2 °F /  -3.8 °C 30.21in /  1022.9hPa Calm     72% 0in /  0mm meteobridge W/m2
01:54 33.1 °F /  0.6 °C 25 °F /  -3.9 °C 30.20in /  1022.6hPa Calm     72% 0in /  0mm meteobridge W/m2
01:59 33.1 °F /  0.6 °C 25.3 °F /  -3.7 °C 30.21in /  1022.9hPa Calm     73% 0in /  0mm meteobridge W/m2
02:04 32.7 °F /  0.4 °C 25.3 °F /  -3.7 °C 30.21in /  1022.9hPa Calm     74% 0in /  0mm meteobridge W/m2
02:09 32.5 °F /  0.3 °C 25.2 °F /  -3.8 °C 30.21in /  1022.9hPa Calm     74% 0in /  0mm meteobridge W/m2
02:14 32.4 °F /  0.2 °C 25 °F /  -3.9 °C 30.21in /  1022.9hPa Calm     74% 0in /  0mm meteobridge W/m2
02:19 32 °F /  0 °C 25 °F /  -3.9 °C 30.21in /  1022.9hPa Calm     75% 0in /  0mm meteobridge W/m2
02:24 31.8 °F /  -0.1 °C 25.2 °F /  -3.8 °C 30.22in /  1023.2hPa Calm     76% 0in /  0mm meteobridge W/m2
02:29 31.5 °F /  -0.3 °C 24.8 °F /  -4 °C 30.22in /  1023.2hPa Calm     76% 0in /  0mm meteobridge W/m2
02:34 31.3 °F /  -0.4 °C 24.6 °F /  -4.1 °C 30.22in /  1023.2hPa Calm     76% 0in /  0mm meteobridge W/m2
02:39 31.3 °F /  -0.4 °C 24.6 °F /  -4.1 °C 30.22in /  1023.2hPa Calm     76% 0in /  0mm meteobridge W/m2
02:44 30.9 °F /  -0.6 °C 24.6 °F /  -4.1 °C 30.22in /  1023.2hPa Calm     77% 0in /  0mm meteobridge W/m2
02:49 30.7 °F /  -0.7 °C 24.4 °F /  -4.2 °C 30.22in /  1023.2hPa Calm     77% 0in /  0mm meteobridge W/m2
02:54 30.6 °F /  -0.8 °C 24.3 °F /  -4.3 °C 30.22in /  1023.2hPa Calm     77% 0in /  0mm meteobridge W/m2
02:59 30.6 °F /  -0.8 °C 24.3 °F /  -4.3 °C 30.22in /  1023.2hPa Calm     77% 0in /  0mm meteobridge W/m2
03:04 30.4 °F /  -0.9 °C 24.3 °F /  -4.3 °C 30.22in /  1023.2hPa Calm     78% 0in /  0mm meteobridge W/m2
03:09 30.4 °F /  -0.9 °C 24.3 °F /  -4.3 °C 30.22in /  1023.2hPa Calm     78% 0in /  0mm meteobridge W/m2
03:14 30.4 °F /  -0.9 °C 24.3 °F /  -4.3 °C 30.22in /  1023.2hPa Calm     78% 0in /  0mm meteobridge W/m2
03:19 30.4 °F /  -0.9 °C 24.3 °F /  -4.3 °C 30.22in /  1023.2hPa Calm     78% 0in /  0mm meteobridge W/m2
03:24 30.4 °F /  -0.9 °C 24.3 °F /  -4.3 °C 30.22in /  1023.2hPa Calm     78% 0in /  0mm meteobridge W/m2
03:29 30.4 °F /  -0.9 °C 24.3 °F /  -4.3 °C 30.22in /  1023.2hPa Calm     78% 0in /  0mm meteobridge W/m2
03:34 30.2 °F /  -1 °C 24.3 °F /  -4.3 °C 30.22in /  1023.2hPa Calm     78% 0in /  0mm meteobridge W/m2
03:39 30.2 °F /  -1 °C 24.3 °F /  -4.3 °C 30.22in /  1023.2hPa Calm     78% 0in /  0mm meteobridge W/m2
03:44 30.2 °F /  -1 °C 24.3 °F /  -4.3 °C 30.22in /  1023.2hPa Calm     78% 0in /  0mm meteobridge W/m2
03:49 30 °F /  -1.1 °C 24.1 °F /  -4.4 °C 30.22in /  1023.2hPa Calm     78% 0in /  0mm meteobridge W/m2
03:54 30 °F /  -1.1 °C 24.1 °F /  -4.4 °C 30.22in /  1023.2hPa Calm     78% 0in /  0mm meteobridge W/m2
03:59 29.8 °F /  -1.2 °C 23.9 °F /  -4.5 °C 30.22in /  1023.2hPa Calm     78% 0in /  0mm meteobridge W/m2
04:04 29.8 °F /  -1.2 °C 23.9 °F /  -4.5 °C 30.22in /  1023.2hPa Calm     78% 0in /  0mm meteobridge W/m2
04:09 29.7 °F /  -1.3 °C 23.7 °F /  -4.6 °C 30.22in /  1023.2hPa Calm     78% 0in /  0mm meteobridge W/m2
04:14 29.7 °F /  -1.3 °C 23.7 °F /  -4.6 °C 30.22in /  1023.2hPa Calm     78% 0in /  0mm meteobridge W/m2
04:19 29.5 °F /  -1.4 °C 23.5 °F /  -4.7 °C 30.22in /  1023.2hPa Calm     78% 0in /  0mm meteobridge W/m2
04:24 29.1 °F /  -1.6 °C 23.2 °F /  -4.9 °C 30.22in /  1023.2hPa Calm     78% 0in /  0mm meteobridge W/m2
04:29 29.1 °F /  -1.6 °C 23.2 °F /  -4.9 °C 30.22in /  1023.2hPa Calm     78% 0in /  0mm meteobridge W/m2
04:34 28.9 °F /  -1.7 °C 23 °F /  -5 °C 30.22in /  1023.2hPa Calm     78% 0in /  0mm meteobridge W/m2
04:39 28.8 °F /  -1.8 °C 22.8 °F /  -5.1 °C 30.22in /  1023.2hPa Calm     78% 0in /  0mm meteobridge W/m2
04:44 28.6 °F /  -1.9 °C 22.6 °F /  -5.2 °C 30.22in /  1023.2hPa Calm     78% 0in /  0mm meteobridge W/m2
04:49 28.6 °F /  -1.9 °C 22.6 °F /  -5.2 °C 30.22in /  1023.2hPa Calm     78% 0in /  0mm meteobridge W/m2
04:54 28.4 °F /  -2 °C 22.5 °F /  -5.3 °C 30.22in /  1023.2hPa Calm     78% 0in /  0mm meteobridge W/m2
04:59 28.2 °F /  -2.1 °C 22.3 °F /  -5.4 °C 30.22in /  1023.2hPa Calm     78% 0in /  0mm meteobridge W/m2
05:04 28.2 °F /  -2.1 °C 22.3 °F /  -5.4 °C 30.23in /  1023.6hPa Calm     78% 0in /  0mm meteobridge W/m2
05:09 28 °F /  -2.2 °C 22.1 °F /  -5.5 °C 30.23in /  1023.6hPa Calm     78% 0in /  0mm meteobridge W/m2
05:14 28 °F /  -2.2 °C 22.1 °F /  -5.5 °C 30.23in /  1023.6hPa Calm     78% 0in /  0mm meteobridge W/m2
05:19 28 °F /  -2.2 °C 22.1 °F /  -5.5 °C 30.23in /  1023.6hPa Calm     78% 0in /  0mm meteobridge W/m2
05:24 28.2 °F /  -2.1 °C 21.9 °F /  -5.6 °C 30.23in /  1023.6hPa Calm     77% 0in /  0mm meteobridge W/m2
05:29 28.2 °F /  -2.1 °C 21.9 °F /  -5.6 °C 30.23in /  1023.6hPa Calm     77% 0in /  0mm meteobridge W/m2
05:34 28 °F /  -2.2 °C 21.7 °F /  -5.7 °C 30.23in /  1023.6hPa Calm     77% 0in /  0mm meteobridge W/m2
05:39 28 °F /  -2.2 °C 21.7 °F /  -5.7 °C 30.23in /  1023.6hPa Calm     77% 0in /  0mm meteobridge W/m2
05:44 28 °F /  -2.2 °C 21.7 °F /  -5.7 °C 30.23in /  1023.6hPa Calm     77% 0in /  0mm meteobridge W/m2
05:49 28 °F /  -2.2 °C 21.7 °F /  -5.7 °C 30.23in /  1023.6hPa Calm     77% 0in /  0mm meteobridge W/m2
05:54 27.9 °F /  -2.3 °C 21.6 °F /  -5.8 °C 30.24in /  1023.9hPa Calm     77% 0in /  0mm meteobridge W/m2
05:59 27.9 °F /  -2.3 °C 21.6 °F /  -5.8 °C 30.24in /  1023.9hPa Calm     77% 0in /  0mm meteobridge W/m2
06:04 27.9 °F /  -2.3 °C 21.6 °F /  -5.8 °C 30.24in /  1023.9hPa Calm     77% 0in /  0mm meteobridge W/m2
06:09 27.7 °F /  -2.4 °C 21 °F /  -6.1 °C 30.24in /  1023.9hPa Calm     76% 0in /  0mm meteobridge W/m2
06:14 27.9 °F /  -2.3 °C 21.2 °F /  -6 °C 30.24in /  1023.9hPa Calm     76% 0in /  0mm meteobridge W/m2
06:19 27.7 °F /  -2.4 °C 21 °F /  -6.1 °C 30.25in /  1024.3hPa Calm     76% 0in /  0mm meteobridge W/m2
06:24 27.7 °F /  -2.4 °C 21 °F /  -6.1 °C 30.25in /  1024.3hPa Calm     76% 0in /  0mm meteobridge W/m2
06:29 27.7 °F /  -2.4 °C 21 °F /  -6.1 °C 30.25in /  1024.3hPa Calm     76% 0in /  0mm meteobridge W/m2
06:34 27.7 °F /  -2.4 °C 21 °F /  -6.1 °C 30.25in /  1024.3hPa Calm     76% 0in /  0mm meteobridge W/m2
06:39 27.5 °F /  -2.5 °C 20.7 °F /  -6.3 °C 30.26in /  1024.6hPa Calm     75% 0in /  0mm meteobridge W/m2
06:44 27.5 °F /  -2.5 °C 20.7 °F /  -6.3 °C 30.26in /  1024.6hPa Calm     75% 0in /  0mm meteobridge W/m2
06:49 27.5 °F /  -2.5 °C 20.7 °F /  -6.3 °C 30.26in /  1024.6hPa Calm     75% 0in /  0mm meteobridge W/m2
06:54 27.5 °F /  -2.5 °C 20.7 °F /  -6.3 °C 30.26in /  1024.6hPa Calm     75% 0in /  0mm meteobridge W/m2
06:59 27.3 °F /  -2.6 °C 20.5 °F /  -6.4 °C 30.26in /  1024.6hPa Calm     75% 0in /  0mm meteobridge W/m2
07:04 27.3 °F /  -2.6 °C 20.5 °F /  -6.4 °C 30.26in /  1024.6hPa Calm     75% 0in /  0mm meteobridge W/m2
07:09 27.3 °F /  -2.6 °C 20.5 °F /  -6.4 °C 30.26in /  1024.6hPa Calm     75% 0in /  0mm meteobridge W/m2
07:14 27.1 °F /  -2.7 °C 20.3 °F /  -6.5 °C 30.27in /  1024.9hPa Calm     75% 0in /  0mm meteobridge W/m2
07:19 27.1 °F /  -2.7 °C 20.3 °F /  -6.5 °C 30.27in /  1024.9hPa Calm     75% 0in /  0mm meteobridge W/m2
07:24 27.1 °F /  -2.7 °C 20.3 °F /  -6.5 °C 30.27in /  1024.9hPa Calm     75% 0in /  0mm meteobridge W/m2
07:29 27 °F /  -2.8 °C 20.1 °F /  -6.6 °C 30.27in /  1024.9hPa Calm     75% 0in /  0mm meteobridge W/m2
07:34 27 °F /  -2.8 °C 20.1 °F /  -6.6 °C 30.27in /  1024.9hPa Calm     75% 0in /  0mm meteobridge W/m2
07:39 27 °F /  -2.8 °C 20.1 °F /  -6.6 °C 30.27in /  1024.9hPa Calm     75% 0in /  0mm meteobridge W/m2
07:44 26.8 °F /  -2.9 °C 19.9 °F /  -6.7 °C 30.27in /  1024.9hPa Calm     75% 0in /  0mm meteobridge W/m2
07:49 26.8 °F /  -2.9 °C 19.9 °F /  -6.7 °C 30.27in /  1024.9hPa Calm     75% 0in /  0mm meteobridge W/m2
07:54 26.8 °F /  -2.9 °C 19.6 °F /  -6.9 °C 30.27in /  1024.9hPa Calm     74% 0in /  0mm meteobridge W/m2
07:59 26.8 °F /  -2.9 °C 19.6 °F /  -6.9 °C 30.27in /  1024.9hPa Calm     74% 0in /  0mm meteobridge W/m2
08:04 26.8 °F /  -2.9 °C 19.6 °F /  -6.9 °C 30.27in /  1024.9hPa Calm     74% 0in /  0mm meteobridge W/m2
08:09 27 °F /  -2.8 °C 19.4 °F /  -7 °C 30.27in /  1024.9hPa Calm     73% 0in /  0mm meteobridge W/m2
08:14 27 °F /  -2.8 °C 19.4 °F /  -7 °C 30.28in /  1025.3hPa Calm     73% 0in /  0mm meteobridge W/m2
08:19 27.1 °F /  -2.7 °C 19.6 °F /  -6.9 °C 30.28in /  1025.3hPa Calm     73% 0in /  0mm meteobridge W/m2
08:24 27.3 °F /  -2.6 °C 19.8 °F /  -6.8 °C 30.28in /  1025.3hPa Calm     73% 0in /  0mm meteobridge W/m2
08:29 27.7 °F /  -2.4 °C 19.8 °F /  -6.8 °C 30.28in /  1025.3hPa Calm     72% 0in /  0mm meteobridge W/m2
08:34 27.9 °F /  -2.3 °C 19.9 °F /  -6.7 °C 30.28in /  1025.3hPa Calm     72% 0in /  0mm meteobridge W/m2
08:39 28 °F /  -2.2 °C 20.1 °F /  -6.6 °C 30.29in /  1025.6hPa Calm   1mph /  1.6km/h 72% 0in /  0mm meteobridge W/m2
08:44 28.6 °F /  -1.9 °C 21.4 °F /  -5.9 °C 30.29in /  1025.6hPa Calm   3mph /  4.8km/h 74% 0in /  0mm meteobridge W/m2
08:49 29.1 °F /  -1.6 °C 22.3 °F /  -5.4 °C 30.29in /  1025.6hPa Calm   2mph /  3.2km/h 75% 0in /  0mm meteobridge W/m2
08:54 29.8 °F /  -1.2 °C 23.5 °F /  -4.7 °C 30.29in /  1025.6hPa Calm   1mph /  1.6km/h 77% 0in /  0mm meteobridge W/m2
08:59 30.4 °F /  -0.9 °C 24.1 °F /  -4.4 °C 30.30in /  1026hPa Calm     77% 0in /  0mm meteobridge W/m2
09:04 30.9 °F /  -0.6 °C 24.8 °F /  -4 °C 30.30in /  1026hPa Calm   4mph /  6.4km/h 78% 0in /  0mm meteobridge W/m2
09:09 31.6 °F /  -0.2 °C 25.5 °F /  -3.6 °C 30.30in /  1026hPa Calm   3mph /  4.8km/h 78% 0in /  0mm meteobridge W/m2
09:14 32 °F /  0 °C 25.7 °F /  -3.5 °C 30.30in /  1026hPa Calm     77% 0in /  0mm meteobridge W/m2
09:19 32.4 °F /  0.2 °C 25.7 °F /  -3.5 °C 30.30in /  1026hPa Calm     76% 0in /  0mm meteobridge W/m2
09:24 32.7 °F /  0.4 °C 26.1 °F /  -3.3 °C 30.30in /  1026hPa Calm     76% 0in /  0mm meteobridge W/m2
09:29 33.3 °F /  0.7 °C 26.2 °F /  -3.2 °C 30.30in /  1026hPa Calm   8mph /  12.9km/h 75% 0in /  0mm meteobridge W/m2
09:34 33.6 °F /  0.9 °C 26.6 °F /  -3 °C 30.30in /  1026hPa Calm   7mph /  11.3km/h 75% 0in /  0mm meteobridge W/m2
09:39 34.2 °F /  1.2 °C 26.4 °F /  -3.1 °C 30.30in /  1026hPa WNW 2mph /  3.2km/h 2mph /  3.2km/h 73% 0in /  0mm meteobridge W/m2
09:44 34.5 °F /  1.4 °C 26.4 °F /  -3.1 °C 30.30in /  1026hPa Calm   4mph /  6.4km/h 72% 0in /  0mm meteobridge W/m2
09:49 34.9 °F /  1.6 °C 26.8 °F /  -2.9 °C 30.31in /  1026.3hPa Calm     72% 0in /  0mm meteobridge W/m2
09:54 34.5 °F /  1.4 °C 25.7 °F /  -3.5 °C 30.31in /  1026.3hPa Calm   2mph /  3.2km/h 70% 0in /  0mm meteobridge W/m2
09:59 34.5 °F /  1.4 °C 25.7 °F /  -3.5 °C 30.31in /  1026.3hPa NW 2mph /  3.2km/h 5mph /  8km/h 70% 0in /  0mm meteobridge W/m2
10:04 34.5 °F /  1.4 °C 25.7 °F /  -3.5 °C 30.31in /  1026.3hPa Calm   6mph /  9.7km/h 70% 0in /  0mm meteobridge W/m2
10:09 34.9 °F /  1.6 °C 25.3 °F /  -3.7 °C 30.32in /  1026.6hPa WNW 4mph /  6.4km/h 5mph /  8km/h 68% 0in /  0mm meteobridge W/m2
10:14 35.1 °F /  1.7 °C 25.9 °F /  -3.4 °C 30.32in /  1026.6hPa Calm   2mph /  3.2km/h 69% 0in /  0mm meteobridge W/m2
10:19 35.2 °F /  1.8 °C 26.1 °F /  -3.3 °C 30.31in /  1026.3hPa Calm   3mph /  4.8km/h 69% 0in /  0mm meteobridge W/m2
10:24 35.6 °F /  2 °C 26.4 °F /  -3.1 °C 30.31in /  1026.3hPa Calm   3mph /  4.8km/h 69% 0in /  0mm meteobridge W/m2
10:29 35.4 °F /  1.9 °C 25.5 °F /  -3.6 °C 30.32in /  1026.6hPa Calm     67% 0in /  0mm meteobridge W/m2
10:34 35.4 °F /  1.9 °C 25.5 °F /  -3.6 °C 30.32in /  1026.6hPa NNW 6mph /  9.7km/h 7mph /  11.3km/h 67% 0in /  0mm meteobridge W/m2
10:39 35.4 °F /  1.9 °C 25.9 °F /  -3.4 °C 30.32in /  1026.6hPa Calm     68% 0in /  0mm meteobridge W/m2
10:44 35.6 °F /  2 °C 25.7 °F /  -3.5 °C 30.32in /  1026.6hPa Calm     67% 0in /  0mm meteobridge W/m2
10:49 35.8 °F /  2.1 °C 26.2 °F /  -3.2 °C 30.31in /  1026.3hPa Calm   1mph /  1.6km/h 68% 0in /  0mm meteobridge W/m2
10:54 35.8 °F /  2.1 °C 25.9 °F /  -3.4 °C 30.32in /  1026.6hPa NE 2.9mph /  4.7km/h 5mph /  8km/h 67% 0in /  0mm meteobridge W/m2
10:59 35.8 °F /  2.1 °C 25.9 °F /  -3.4 °C 30.31in /  1026.3hPa North 4mph /  6.4km/h 8mph /  12.9km/h 67% 0in /  0mm meteobridge W/m2
11:04 36 °F /  2.2 °C 26.1 °F /  -3.3 °C 30.32in /  1026.6hPa Calm   3mph /  4.8km/h 67% 0in /  0mm meteobridge W/m2
11:09 36.1 °F /  2.3 °C 26.2 °F /  -3.2 °C 30.32in /  1026.6hPa WNW 0.9mph /  1.4km/h 4mph /  6.4km/h 67% 0in /  0mm meteobridge W/m2
11:14 36.3 °F /  2.4 °C 26.4 °F /  -3.1 °C 30.32in /  1026.6hPa NNE 4.9mph /  7.9km/h 6mph /  9.7km/h 67% 0in /  0mm meteobridge W/m2
11:19 36.3 °F /  2.4 °C 26.1 °F /  -3.3 °C 30.31in /  1026.3hPa Calm   8mph /  12.9km/h 66% 0in /  0mm meteobridge W/m2
11:24 36.3 °F /  2.4 °C 26.1 °F /  -3.3 °C 30.31in /  1026.3hPa Calm   6mph /  9.7km/h 66% 0in /  0mm meteobridge W/m2
11:29 36.3 °F /  2.4 °C 26.1 °F /  -3.3 °C 30.32in /  1026.6hPa NNW 2.9mph /  4.7km/h 3mph /  4.8km/h 66% 0in /  0mm meteobridge W/m2
11:34 36.1 °F /  2.3 °C 26.2 °F /  -3.2 °C 30.31in /  1026.3hPa Calm   1mph /  1.6km/h 67% 0in /  0mm meteobridge W/m2
11:39 36.3 °F /  2.4 °C 26.4 °F /  -3.1 °C 30.31in /  1026.3hPa Calm     67% 0in /  0mm meteobridge W/m2
11:44 36.9 °F /  2.7 °C 27.7 °F /  -2.4 °C 30.32in /  1026.6hPa Calm   6mph /  9.7km/h 69% 0in /  0mm meteobridge W/m2
11:49 36.9 °F /  2.7 °C 26.2 °F /  -3.2 °C 30.31in /  1026.3hPa North 2mph /  3.2km/h 4mph /  6.4km/h 65% 0in /  0mm meteobridge W/m2
11:54 37 °F /  2.8 °C 26.8 °F /  -2.9 °C 30.31in /  1026.3hPa NW 0.9mph /  1.4km/h 8mph /  12.9km/h 66% 0in /  0mm meteobridge W/m2
11:59 37 °F /  2.8 °C 26.4 °F /  -3.1 °C 30.32in /  1026.6hPa NW 0.9mph /  1.4km/h 10mph /  16.1km/h 65% 0in /  0mm meteobridge W/m2
12:04 36.9 °F /  2.7 °C 26.2 °F /  -3.2 °C 30.31in /  1026.3hPa Calm   3mph /  4.8km/h 65% 0in /  0mm meteobridge W/m2
12:09 37 °F /  2.8 °C 26.4 °F /  -3.1 °C 30.31in /  1026.3hPa NNE 0.9mph /  1.4km/h 7mph /  11.3km/h 65% 0in /  0mm meteobridge W/m2
12:14 37.2 °F /  2.9 °C 26.2 °F /  -3.2 °C 30.31in /  1026.3hPa NNW 0.9mph /  1.4km/h 6mph /  9.7km/h 64% 0in /  0mm meteobridge W/m2
12:19 37.4 °F /  3 °C 26.4 °F /  -3.1 °C 30.31in /  1026.3hPa Calm   4mph /  6.4km/h 64% 0in /  0mm meteobridge W/m2
12:24 37.2 °F /  2.9 °C 25.7 °F /  -3.5 °C 30.31in /  1026.3hPa NW 2mph /  3.2km/h 6mph /  9.7km/h 63% 0in /  0mm meteobridge W/m2
12:29 37.2 °F /  2.9 °C 25.7 °F /  -3.5 °C 30.30in /  1026hPa Calm   5mph /  8km/h 63% 0in /  0mm meteobridge W/m2
12:34 37.2 °F /  2.9 °C 25.7 °F /  -3.5 °C 30.30in /  1026hPa Calm   7mph /  11.3km/h 63% 0in /  0mm meteobridge W/m2
12:39 37.6 °F /  3.1 °C 26.1 °F /  -3.3 °C 30.30in /  1026hPa Calm   6mph /  9.7km/h 63% 0in /  0mm meteobridge W/m2
12:44 37.9 °F /  3.3 °C 26.4 °F /  -3.1 °C 30.30in /  1026hPa Calm   3mph /  4.8km/h 63% 0in /  0mm meteobridge W/m2
12:49 37.9 °F /  3.3 °C 25.3 °F /  -3.7 °C 30.30in /  1026hPa Calm   6mph /  9.7km/h 60% 0in /  0mm meteobridge W/m2
12:54 37.6 °F /  3.1 °C 24.6 °F /  -4.1 °C 30.30in /  1026hPa Calm   4mph /  6.4km/h 59% 0in /  0mm meteobridge W/m2
12:59 37.6 °F /  3.1 °C 25 °F /  -3.9 °C 30.30in /  1026hPa Calm   7mph /  11.3km/h 60% 0in /  0mm meteobridge W/m2
13:04 37.8 °F /  3.2 °C 25.5 °F /  -3.6 °C 30.30in /  1026hPa SE 0.9mph /  1.4km/h 4mph /  6.4km/h 61% 0in /  0mm meteobridge W/m2
13:09 38.1 °F /  3.4 °C 25 °F /  -3.9 °C 30.30in /  1026hPa Calm   4mph /  6.4km/h 59% 0in /  0mm meteobridge W/m2
13:14 38.5 °F /  3.6 °C 25.3 °F /  -3.7 °C 30.30in /  1026hPa Calm   3mph /  4.8km/h 59% 0in /  0mm meteobridge W/m2
13:19 38.5 °F /  3.6 °C 25.9 °F /  -3.4 °C 30.31in /  1026.3hPa Calm   5mph /  8km/h 60% 0in /  0mm meteobridge W/m2
13:24 38.7 °F /  3.7 °C 25.5 °F /  -3.6 °C 30.30in /  1026hPa Calm   5mph /  8km/h 59% 0in /  0mm meteobridge W/m2
13:29 38.5 °F /  3.6 °C 25 °F /  -3.9 °C 30.30in /  1026hPa WNW 6mph /  9.7km/h 6mph /  9.7km/h 58% 0in /  0mm meteobridge W/m2
13:34 38.3 °F /  3.5 °C 25.2 °F /  -3.8 °C 30.30in /  1026hPa WNW 4.9mph /  7.9km/h 8mph /  12.9km/h 59% 0in /  0mm meteobridge W/m2
13:39 38.1 °F /  3.4 °C 24.6 °F /  -4.1 °C 30.31in /  1026.3hPa NNE 2mph /  3.2km/h 8mph /  12.9km/h 58% 0in /  0mm meteobridge W/m2
13:44 38.1 °F /  3.4 °C 25 °F /  -3.9 °C 30.31in /  1026.3hPa Calm   4mph /  6.4km/h 59% 0in /  0mm meteobridge W/m2
13:49 38.5 °F /  3.6 °C 25.3 °F /  -3.7 °C 30.30in /  1026hPa Calm   3mph /  4.8km/h 59% 0in /  0mm meteobridge W/m2
13:54 38.5 °F /  3.6 °C 25.3 °F /  -3.7 °C 30.31in /  1026.3hPa Calm   4mph /  6.4km/h 59% 0in /  0mm meteobridge W/m2
13:59 38.5 °F /  3.6 °C 25.9 °F /  -3.4 °C 30.31in /  1026.3hPa NNW 0.9mph /  1.4km/h 4mph /  6.4km/h 60% 0in /  0mm meteobridge W/m2
14:04 38.5 °F /  3.6 °C 25.3 °F /  -3.7 °C 30.31in /  1026.3hPa WNW 2mph /  3.2km/h 5mph /  8km/h 59% 0in /  0mm meteobridge W/m2
14:09 37.9 °F /  3.3 °C 25.3 °F /  -3.7 °C 30.30in /  1026hPa Calm   4mph /  6.4km/h 60% 0in /  0mm meteobridge W/m2
14:14 37.9 °F /  3.3 °C 25.3 °F /  -3.7 °C 30.31in /  1026.3hPa Calm   4mph /  6.4km/h 60% 0in /  0mm meteobridge W/m2
14:19 37.9 °F /  3.3 °C 25.7 °F /  -3.5 °C 30.31in /  1026.3hPa Calm   7mph /  11.3km/h 61% 0in /  0mm meteobridge W/m2
14:24 38.1 °F /  3.4 °C 25.5 °F /  -3.6 °C 30.31in /  1026.3hPa Calm   6mph /  9.7km/h 60% 0in /  0mm meteobridge W/m2
14:29 37.8 °F /  3.2 °C 25.2 °F /  -3.8 °C 30.31in /  1026.3hPa Calm   2mph /  3.2km/h 60% 0in /  0mm meteobridge W/m2
14:34 37.2 °F /  2.9 °C 24.6 °F /  -4.1 °C 30.31in /  1026.3hPa Calm   1mph /  1.6km/h 60% 0in /  0mm meteobridge W/m2
14:39 37.4 °F /  3 °C 24.8 °F /  -4 °C 30.31in /  1026.3hPa West 0.9mph /  1.4km/h 1mph /  1.6km/h 60% 0in /  0mm meteobridge W/m2
14:44 37.2 °F /  2.9 °C 24.6 °F /  -4.1 °C 30.31in /  1026.3hPa Calm   3mph /  4.8km/h 60% 0in /  0mm meteobridge W/m2
14:49 37 °F /  2.8 °C 24.4 °F /  -4.2 °C 30.32in /  1026.6hPa NNE 2.9mph /  4.7km/h 7mph /  11.3km/h 60% 0in /  0mm meteobridge W/m2
14:54 36.9 °F /  2.7 °C 24.3 °F /  -4.3 °C 30.32in /  1026.6hPa WSW 2.9mph /  4.7km/h 10mph /  16.1km/h 60% 0in /  0mm meteobridge W/m2
14:59 36.7 °F /  2.6 °C 24.4 °F /  -4.2 °C 30.32in /  1026.6hPa WNW 2mph /  3.2km/h 5mph /  8km/h 61% 0in /  0mm meteobridge W/m2
15:04 37 °F /  2.8 °C 24.4 °F /  -4.2 °C 30.32in /  1026.6hPa Calm   2mph /  3.2km/h 60% 0in /  0mm meteobridge W/m2
15:09 37 °F /  2.8 °C 24.4 °F /  -4.2 °C 30.32in /  1026.6hPa Calm   5mph /  8km/h 60% 0in /  0mm meteobridge W/m2
15:14 36.9 °F /  2.7 °C 24.3 °F /  -4.3 °C 30.32in /  1026.6hPa WNW 0.9mph /  1.4km/h 5mph /  8km/h 60% 0in /  0mm meteobridge W/m2
15:19 36.5 °F /  2.5 °C 24.3 °F /  -4.3 °C 30.32in /  1026.6hPa Calm   3mph /  4.8km/h 61% 0in /  0mm meteobridge W/m2
15:24 36.3 °F /  2.4 °C 24.1 °F /  -4.4 °C 30.32in /  1026.6hPa NNW 2mph /  3.2km/h 8mph /  12.9km/h 61% 0in /  0mm meteobridge W/m2
15:29 36.1 °F /  2.3 °C 24.4 °F /  -4.2 °C 30.33in /  1027hPa Calm   5mph /  8km/h 62% 0in /  0mm meteobridge W/m2
15:34 36.1 °F /  2.3 °C 24.4 °F /  -4.2 °C 30.33in /  1027hPa Calm   3mph /  4.8km/h 62% 0in /  0mm meteobridge W/m2
15:39 36 °F /  2.2 °C 24.6 °F /  -4.1 °C 30.33in /  1027hPa Calm   8mph /  12.9km/h 63% 0in /  0mm meteobridge W/m2
15:44 35.8 °F /  2.1 °C 24.4 °F /  -4.2 °C 30.34in /  1027.3hPa Calm   4mph /  6.4km/h 63% 0in /  0mm meteobridge W/m2
15:49 35.8 °F /  2.1 °C 24.4 °F /  -4.2 °C 30.34in /  1027.3hPa Calm   3mph /  4.8km/h 63% 0in /  0mm meteobridge W/m2
15:54 35.4 °F /  1.9 °C 24.1 °F /  -4.4 °C 30.34in /  1027.3hPa West 4mph /  6.4km/h 4mph /  6.4km/h 63% 0in /  0mm meteobridge W/m2
15:59 35.2 °F /  1.8 °C 24.3 °F /  -4.3 °C 30.34in /  1027.3hPa NNW 2.9mph /  4.7km/h 6mph /  9.7km/h 64% 0in /  0mm meteobridge W/m2
16:04 35.2 °F /  1.8 °C 24.6 °F /  -4.1 °C 30.34in /  1027.3hPa North 4mph /  6.4km/h 5mph /  8km/h 65% 0in /  0mm meteobridge W/m2
16:09 35.1 °F /  1.7 °C 24.1 °F /  -4.4 °C 30.35in /  1027.7hPa Calm   2mph /  3.2km/h 64% 0in /  0mm meteobridge W/m2
16:14 35.1 °F /  1.7 °C 24.4 °F /  -4.2 °C 30.35in /  1027.7hPa NW 4mph /  6.4km/h 4mph /  6.4km/h 65% 0in /  0mm meteobridge W/m2
16:19 35.1 °F /  1.7 °C 24.4 °F /  -4.2 °C 30.35in /  1027.7hPa Calm     65% 0in /  0mm meteobridge W/m2
16:24 35.1 °F /  1.7 °C 24.4 °F /  -4.2 °C 30.36in /  1028hPa Calm   1mph /  1.6km/h 65% 0in /  0mm meteobridge W/m2
16:29 34.9 °F /  1.6 °C 24.3 °F /  -4.3 °C 30.36in /  1028hPa WNW 4mph /  6.4km/h 4mph /  6.4km/h 65% 0in /  0mm meteobridge W/m2
16:34 34.9 °F /  1.6 °C 24.3 °F /  -4.3 °C 30.37in /  1028.3hPa Calm   4mph /  6.4km/h 65% 0in /  0mm meteobridge W/m2
16:39 34.7 °F /  1.5 °C 24.4 °F /  -4.2 °C 30.37in /  1028.3hPa Calm   7mph /  11.3km/h 66% 0in /  0mm meteobridge W/m2
16:44 34.5 °F /  1.4 °C 24.3 °F /  -4.3 °C 30.37in /  1028.3hPa North 2mph /  3.2km/h 8mph /  12.9km/h 66% 0in /  0mm meteobridge W/m2
16:49 34.5 °F /  1.4 °C 24.3 °F /  -4.3 °C 30.37in /  1028.3hPa WSW 2mph /  3.2km/h 4mph /  6.4km/h 66% 0in /  0mm meteobridge W/m2
16:54 34.3 °F /  1.3 °C 24.1 °F /  -4.4 °C 30.37in /  1028.3hPa Calm   4mph /  6.4km/h 66% 0in /  0mm meteobridge W/m2
16:59 34.2 °F /  1.2 °C 24.1 °F /  -4.4 °C 30.37in /  1028.3hPa SSW 0.9mph /  1.4km/h 3mph /  4.8km/h 66% 0in /  0mm meteobridge W/m2
17:04 34.2 °F /  1.2 °C 24.4 °F /  -4.2 °C 30.37in /  1028.3hPa WNW 2.9mph /  4.7km/h 4mph /  6.4km/h 67% 0in /  0mm meteobridge W/m2
17:09 34 °F /  1.1 °C 24.3 °F /  -4.3 °C 30.37in /  1028.3hPa NNW 2.9mph /  4.7km/h 3mph /  4.8km/h 67% 0in /  0mm meteobridge W/m2
17:14 33.8 °F /  1 °C 24.1 °F /  -4.4 °C 30.38in /  1028.7hPa Calm   2mph /  3.2km/h 67% 0in /  0mm meteobridge W/m2
17:19 33.6 °F /  0.9 °C 23.9 °F /  -4.5 °C 30.37in /  1028.3hPa Calm   7mph /  11.3km/h 67% 0in /  0mm meteobridge W/m2
17:24 33.6 °F /  0.9 °C 23.9 °F /  -4.5 °C 30.37in /  1028.3hPa Calm   3mph /  4.8km/h 67% 0in /  0mm meteobridge W/m2
17:29 33.6 °F /  0.9 °C 24.3 °F /  -4.3 °C 30.37in /  1028.3hPa NW 2.9mph /  4.7km/h 6mph /  9.7km/h 68% 0in /  0mm meteobridge W/m2
17:34 33.4 °F /  0.8 °C 23.7 °F /  -4.6 °C 30.38in /  1028.7hPa Calm   3mph /  4.8km/h 67% 0in /  0mm meteobridge W/m2
17:39 33.4 °F /  0.8 °C 23.7 °F /  -4.6 °C 30.38in /  1028.7hPa Calm     67% 0in /  0mm meteobridge W/m2
17:44 33.4 °F /  0.8 °C 23.7 °F /  -4.6 °C 30.38in /  1028.7hPa Calm   2mph /  3.2km/h 67% 0in /  0mm meteobridge W/m2
17:49 33.3 °F /  0.7 °C 23.5 °F /  -4.7 °C 30.39in /  1029hPa Calm   2mph /  3.2km/h 67% 0in /  0mm meteobridge W/m2
17:54 33.3 °F /  0.7 °C 23.5 °F /  -4.7 °C 30.38in /  1028.7hPa Calm     67% 0in /  0mm meteobridge W/m2
17:59 33.3 °F /  0.7 °C 23.5 °F /  -4.7 °C 30.38in /  1028.7hPa Calm   2mph /  3.2km/h 67% 0in /  0mm meteobridge W/m2
18:04 33.3 °F /  0.7 °C 23.9 °F /  -4.5 °C 30.39in /  1029hPa Calm     68% 0in /  0mm meteobridge W/m2
18:09 33.1 °F /  0.6 °C 23.4 °F /  -4.8 °C 30.39in /  1029hPa Calm   2mph /  3.2km/h 67% 0in /  0mm meteobridge W/m2
18:14 33.1 °F /  0.6 °C 23.4 °F /  -4.8 °C 30.40in /  1029.3hPa Calm     67% 0in /  0mm meteobridge W/m2
18:19 33.1 °F /  0.6 °C 23.7 °F /  -4.6 °C 30.40in /  1029.3hPa Calm   4mph /  6.4km/h 68% 0in /  0mm meteobridge W/m2
18:24 33.1 °F /  0.6 °C 24.1 °F /  -4.4 °C 30.40in /  1029.3hPa Calm   1mph /  1.6km/h 69% 0in /  0mm meteobridge W/m2
18:29 32.9 °F /  0.5 °C 23.9 °F /  -4.5 °C 30.40in /  1029.3hPa NNW 2.9mph /  4.7km/h 3mph /  4.8km/h 69% 0in /  0mm meteobridge W/m2
18:34 32.9 °F /  0.5 °C 24.3 °F /  -4.3 °C 30.40in /  1029.3hPa Calm   1mph /  1.6km/h 70% 0in /  0mm meteobridge W/m2
18:39 32.7 °F /  0.4 °C 23.7 °F /  -4.6 °C 30.41in /  1029.7hPa WSW 2mph /  3.2km/h 5mph /  8km/h 69% 0in /  0mm meteobridge W/m2
18:44 32.7 °F /  0.4 °C 23.7 °F /  -4.6 °C 30.41in /  1029.7hPa Calm     69% 0in /  0mm meteobridge W/m2
18:49 32.7 °F /  0.4 °C 23.4 °F /  -4.8 °C 30.41in /  1029.7hPa Calm   5mph /  8km/h 68% 0in /  0mm meteobridge W/m2
18:54 32.5 °F /  0.3 °C 23.2 °F /  -4.9 °C 30.41in /  1029.7hPa Calm   1mph /  1.6km/h 68% 0in /  0mm meteobridge W/m2
18:59 32.5 °F /  0.3 °C 23.5 °F /  -4.7 °C 30.41in /  1029.7hPa Calm   3mph /  4.8km/h 69% 0in /  0mm meteobridge W/m2
19:04 32.5 °F /  0.3 °C 23.5 °F /  -4.7 °C 30.41in /  1029.7hPa Calm     69% 0in /  0mm meteobridge W/m2
19:09 32.5 °F /  0.3 °C 23.2 °F /  -4.9 °C 30.41in /  1029.7hPa Calm     68% 0in /  0mm meteobridge W/m2
19:14 32.4 °F /  0.2 °C 23.4 °F /  -4.8 °C 30.42in /  1030hPa WNW 4mph /  6.4km/h 6mph /  9.7km/h 69% 0in /  0mm meteobridge W/m2
19:19 32.4 °F /  0.2 °C 23 °F /  -5 °C 30.42in /  1030hPa Calm   1mph /  1.6km/h 68% 0in /  0mm meteobridge W/m2
19:24 32.4 °F /  0.2 °C 23.4 °F /  -4.8 °C 30.42in /  1030hPa Calm   2mph /  3.2km/h 69% 0in /  0mm meteobridge W/m2
19:29 32.2 °F /  0.1 °C 23.5 °F /  -4.7 °C 30.42in /  1030hPa Calm     70% 0in /  0mm meteobridge W/m2
19:34 32 °F /  0 °C 23 °F /  -5 °C 30.42in /  1030hPa Calm   3mph /  4.8km/h 69% 0in /  0mm meteobridge W/m2
19:39 31.8 °F /  -0.1 °C 23.2 °F /  -4.9 °C 30.42in /  1030hPa Calm     70% 0in /  0mm meteobridge W/m2
19:44 31.6 °F /  -0.2 °C 23 °F /  -5 °C 30.42in /  1030hPa Calm     70% 0in /  0mm meteobridge W/m2
19:49 31.5 °F /  -0.3 °C 22.8 °F /  -5.1 °C 30.42in /  1030hPa Calm     70% 0in /  0mm meteobridge W/m2
19:54 31.3 °F /  -0.4 °C 23 °F /  -5 °C 30.42in /  1030hPa Calm     71% 0in /  0mm meteobridge W/m2
19:59 31.1 °F /  -0.5 °C 22.8 °F /  -5.1 °C 30.42in /  1030hPa Calm     71% 0in /  0mm meteobridge W/m2
20:04 30.9 °F /  -0.6 °C 22.6 °F /  -5.2 °C 30.42in /  1030hPa Calm     71% 0in /  0mm meteobridge W/m2
20:09 30.7 °F /  -0.7 °C 22.5 °F /  -5.3 °C 30.42in /  1030hPa Calm     71% 0in /  0mm meteobridge W/m2
20:14 30.6 °F /  -0.8 °C 22.6 °F /  -5.2 °C 30.42in /  1030hPa Calm     72% 0in /  0mm meteobridge W/m2
20:19 30.4 °F /  -0.9 °C 22.5 °F /  -5.3 °C 30.42in /  1030hPa Calm     72% 0in /  0mm meteobridge W/m2
20:24 30 °F /  -1.1 °C 22.1 °F /  -5.5 °C 30.42in /  1030hPa Calm     72% 0in /  0mm meteobridge W/m2
20:29 29.8 °F /  -1.2 °C 22.3 °F /  -5.4 °C 30.42in /  1030hPa Calm     73% 0in /  0mm meteobridge W/m2
20:34 29.7 °F /  -1.3 °C 22.1 °F /  -5.5 °C 30.42in /  1030hPa Calm     73% 0in /  0mm meteobridge W/m2
20:39 29.5 °F /  -1.4 °C 21.9 °F /  -5.6 °C 30.42in /  1030hPa Calm     73% 0in /  0mm meteobridge W/m2
20:44 29.3 °F /  -1.5 °C 22.1 °F /  -5.5 °C 30.42in /  1030hPa Calm     74% 0in /  0mm meteobridge W/m2
20:49 28.9 °F /  -1.7 °C 21.7 °F /  -5.7 °C 30.42in /  1030hPa Calm     74% 0in /  0mm meteobridge W/m2
20:54 28.8 °F /  -1.8 °C 21.6 °F /  -5.8 °C 30.42in /  1030hPa Calm     74% 0in /  0mm meteobridge W/m2
20:59 28.6 °F /  -1.9 °C 21.7 °F /  -5.7 °C 30.42in /  1030hPa Calm     75% 0in /  0mm meteobridge W/m2
21:04 28.4 °F /  -2 °C 21.6 °F /  -5.8 °C 30.42in /  1030hPa Calm     75% 0in /  0mm meteobridge W/m2
21:09 28.2 °F /  -2.1 °C 21.4 °F /  -5.9 °C 30.42in /  1030hPa Calm     75% 0in /  0mm meteobridge W/m2
21:14 28 °F /  -2.2 °C 21.4 °F /  -5.9 °C 30.42in /  1030hPa Calm     76% 0in /  0mm meteobridge W/m2
21:19 28 °F /  -2.2 °C 21.4 °F /  -5.9 °C 30.42in /  1030hPa Calm     76% 0in /  0mm meteobridge W/m2
21:24 28 °F /  -2.2 °C 21.7 °F /  -5.7 °C 30.42in /  1030hPa Calm     77% 0in /  0mm meteobridge W/m2
21:29 27.9 °F /  -2.3 °C 21.6 °F /  -5.8 °C 30.42in /  1030hPa Calm     77% 0in /  0mm meteobridge W/m2
21:34 27.9 °F /  -2.3 °C 21.6 °F /  -5.8 °C 30.42in /  1030hPa Calm     77% 0in /  0mm meteobridge W/m2
21:39 27.9 °F /  -2.3 °C 21.6 °F /  -5.8 °C 30.42in /  1030hPa Calm     77% 0in /  0mm meteobridge W/m2
21:44 27.7 °F /  -2.4 °C 21.7 °F /  -5.7 °C 30.42in /  1030hPa Calm     78% 0in /  0mm meteobridge W/m2
21:49 27.7 °F /  -2.4 °C 21.7 °F /  -5.7 °C 30.42in /  1030hPa Calm     78% 0in /  0mm meteobridge W/m2
21:54 27.7 °F /  -2.4 °C 21.7 °F /  -5.7 °C 30.43in /  1030.4hPa Calm     78% 0in /  0mm meteobridge W/m2
21:59 27.7 °F /  -2.4 °C 21.7 °F /  -5.7 °C 30.43in /  1030.4hPa Calm     78% 0in /  0mm meteobridge W/m2
22:04 27.5 °F /  -2.5 °C 21.6 °F /  -5.8 °C 30.43in /  1030.4hPa Calm     78% 0in /  0mm meteobridge W/m2
22:09 27.3 °F /  -2.6 °C 21.4 °F /  -5.9 °C 30.43in /  1030.4hPa Calm     78% 0in /  0mm meteobridge W/m2
22:14 27.3 °F /  -2.6 °C 21.4 °F /  -5.9 °C 30.43in /  1030.4hPa Calm     78% 0in /  0mm meteobridge W/m2
22:19 27.1 °F /  -2.7 °C 21.2 °F /  -6 °C 30.44in /  1030.7hPa Calm     78% 0in /  0mm meteobridge W/m2
22:24 27.1 °F /  -2.7 °C 21.2 °F /  -6 °C 30.44in /  1030.7hPa Calm     78% 0in /  0mm meteobridge W/m2
22:29 27 °F /  -2.8 °C 21 °F /  -6.1 °C 30.44in /  1030.7hPa Calm     78% 0in /  0mm meteobridge W/m2
22:34 27 °F /  -2.8 °C 21 °F /  -6.1 °C 30.44in /  1030.7hPa Calm     78% 0in /  0mm meteobridge W/m2
22:39 27 °F /  -2.8 °C 21 °F /  -6.1 °C 30.45in /  1031hPa Calm     78% 0in /  0mm meteobridge W/m2
22:44 26.8 °F /  -2.9 °C 20.8 °F /  -6.2 °C 30.45in /  1031hPa Calm     78% 0in /  0mm meteobridge W/m2
22:49 26.8 °F /  -2.9 °C 20.8 °F /  -6.2 °C 30.45in /  1031hPa Calm     78% 0in /  0mm meteobridge W/m2
22:54 26.6 °F /  -3 °C 22.6 °F /  -5.2 °C 30.45in /  1031hPa Calm     85% 0in /  0mm meteobridge W/m2
22:59 26.4 °F /  -3.1 °C 20.5 °F /  -6.4 °C 30.45in /  1031hPa Calm     78% 0in /  0mm meteobridge W/m2
23:03 26.4 °F /  -3.1 °C 20.5 °F /  -6.4 °C 30.44in /  1030.7hPa Calm     78% 0in /  0mm meteobridge W/m2
23:08 26.2 °F /  -3.2 °C 20.3 °F /  -6.5 °C 30.45in /  1031hPa Calm     78% 0in /  0mm meteobridge W/m2
23:14 26.2 °F /  -3.2 °C 20.3 °F /  -6.5 °C 30.45in /  1031hPa Calm     78% 0in /  0mm meteobridge W/m2
23:19 26.2 °F /  -3.2 °C 20.3 °F /  -6.5 °C 30.45in /  1031hPa Calm     78% 0in /  0mm meteobridge W/m2
23:24 26.1 °F /  -3.3 °C 20.5 °F /  -6.4 °C 30.45in /  1031hPa Calm     79% 0in /  0mm meteobridge W/m2
23:29 26.1 °F /  -3.3 °C 20.1 °F /  -6.6 °C 30.45in /  1031hPa Calm     78% 0in /  0mm meteobridge W/m2
23:34 25.9 °F /  -3.4 °C 19.9 °F /  -6.7 °C 30.45in /  1031hPa Calm     78% 0in /  0mm meteobridge W/m2
23:39 25.9 °F /  -3.4 °C 19.9 °F /  -6.7 °C 30.45in /  1031hPa Calm     78% 0in /  0mm meteobridge W/m2
23:44 25.7 °F /  -3.5 °C 20.1 °F /  -6.6 °C 30.45in /  1031hPa Calm     79% 0in /  0mm meteobridge W/m2
23:49 25.5 °F /  -3.6 °C 19.9 °F /  -6.7 °C 30.45in /  1031hPa Calm     79% 0in /  0mm meteobridge W/m2
23:54 25.3 °F /  -3.7 °C 19.4 °F /  -7 °C 30.45in /  1031hPa Calm     78% 0in /  0mm meteobridge W/m2
23:59 25.3 °F /  -3.7 °C 19.4 °F /  -7 °C 30.45in /  1031hPa Calm     78% 0in /  0mm meteobridge W/m2
EllijayWeather
Compliments of Weather Underground - 2.5 mb